Temirtau, Kazakhstan
Current Conditions -  °F | °C
As of 7:30 AM on Wednesday 22 Oct 2014 (Local Time) from UAKK Reporting Station
Clear Clear  
Wind Chill: 26°   Ceiling: Unl
Heat Index: 32°   Visibility: 6mi
Dew Point: 27°   Wind: 7mph
Humidity: 80%   Direction: 190°S
Pressure: 30.15"   Gusts: NA
Location:  50.07°N, 72.96°E
Report Text: UAKK 220130Z 19003MPS CAVOK 00/M03 Q1021 R23/0///70 NOSIG RMKQFE719/0958
Loading
Personal Weather Stations






























Interactive Weather Map
Tropical Storm Tracking
New forecast layout! Learn more

10-Day Weather Forecast

Advertisements
Track Severe Weather on mobile